createdAt,value
2023-04-09T00:01:31.534Z,101228.70
2023-04-09T00:06:33.336Z,101225.31
2023-04-09T00:11:35.891Z,101224.23
2023-04-09T00:16:37.781Z,101223.96
2023-04-09T00:21:39.953Z,101222.90
2023-04-09T00:26:41.727Z,101219.42
2023-04-09T00:31:43.630Z,101220.13
2023-04-09T00:36:45.792Z,101220.32
2023-04-09T00:41:47.584Z,101219.95
2023-04-09T00:46:49.443Z,101220.63
2023-04-09T00:51:52.556Z,101217.30
2023-04-09T00:56:56.340Z,101218.46
2023-04-09T01:01:58.218Z,101222.27
2023-04-09T01:07:38.024Z,101224.76
2023-04-09T01:12:52.176Z,101229.33
2023-04-09T01:18:06.321Z,101231.77
2023-04-09T01:23:14.305Z,101227.92
2023-04-09T01:28:22.296Z,101234.67
2023-04-09T01:33:26.824Z,101228.71
2023-04-09T01:38:28.791Z,101229.59
2023-04-09T01:43:33.030Z,101230.86
2023-04-09T01:48:35.623Z,101230.51
2023-04-09T01:53:37.496Z,101232.85
2023-04-09T01:58:40.517Z,101233.07
2023-04-09T02:03:53.812Z,101234.70
2023-04-09T02:09:00.339Z,101235.20
2023-04-09T02:14:03.740Z,101233.38
2023-04-09T02:19:05.517Z,101237.34
2023-04-09T02:24:07.235Z,101240.80
2023-04-09T02:29:08.963Z,101239.04
2023-04-09T02:34:10.638Z,101238.11
2023-04-09T02:39:12.820Z,101231.69
2023-04-09T02:44:15.006Z,101232.23
2023-04-09T02:49:16.893Z,101238.56
2023-04-09T02:54:18.552Z,101223.82
2023-04-09T02:59:20.442Z,101230.56
2023-04-09T03:04:22.348Z,101230.27
2023-04-09T03:09:24.285Z,101224.25
2023-04-09T03:14:26.065Z,101220.88
2023-04-09T03:19:27.835Z,101223.16
2023-04-09T03:24:31.768Z,101219.36
2023-04-09T03:29:33.426Z,101219.50
2023-04-09T03:34:35.419Z,101220.90
2023-04-09T03:39:37.597Z,101224.92
2023-04-09T03:44:39.372Z,101227.41
2023-04-09T03:49:41.052Z,101221.71
2023-04-09T03:54:43.127Z,101224.92
2023-04-09T03:59:45.231Z,101227.77
2023-04-09T04:04:47.126Z,101229.95
2023-04-09T04:09:48.861Z,101232.62
2023-04-09T04:14:50.729Z,101231.45
2023-04-09T04:19:53.017Z,101237.38
2023-04-09T04:24:54.893Z,101243.42
2023-04-09T04:29:58.528Z,101235.98
2023-04-09T04:35:00.329Z,101236.82
2023-04-09T04:40:04.917Z,101237.55
2023-04-09T04:45:07.621Z,101240.44
2023-04-09T04:50:10.128Z,101238.91
2023-04-09T04:55:12.298Z,101236.20
2023-04-09T05:00:14.492Z,101232.69
2023-04-09T05:05:16.360Z,101233.75
2023-04-09T05:10:18.337Z,101239.48
2023-04-09T05:15:20.109Z,101241.92
2023-04-09T05:20:22.096Z,101241.73
2023-04-09T05:25:24.153Z,101241.44
2023-04-09T05:30:26.783Z,101243.23
2023-04-09T05:35:28.651Z,101247.30
2023-04-09T05:40:30.739Z,101253.99
2023-04-09T05:45:32.608Z,101251.48
2023-04-09T05:50:43.620Z,101250.48
2023-04-09T05:55:53.777Z,101249.55
2023-04-09T06:00:55.751Z,101252.21
2023-04-09T06:05:57.735Z,101253.42
2023-04-09T06:11:00.219Z,101253.01
2023-04-09T06:16:06.781Z,101252.61
2023-04-09T06:21:09.191Z,101260.40
2023-04-09T06:26:11.177Z,101264.44
2023-04-09T06:31:13.075Z,101265.55
2023-04-09T06:36:15.341Z,101272.22
2023-04-09T06:41:23.251Z,101277.20
2023-04-09T06:46:25.756Z,101279.21
2023-04-09T06:51:27.619Z,101283.84
2023-04-09T06:56:29.497Z,101278.75
2023-04-09T07:01:32.304Z,101286.80
2023-04-09T07:06:34.478Z,101290.83
2023-04-09T07:11:36.661Z,101298.46
2023-04-09T07:16:38.769Z,101299.66
2023-04-09T07:21:41.498Z,101304.30
2023-04-09T07:26:43.420Z,101306.36
2023-04-09T07:31:45.080Z,101310.60
2023-04-09T07:36:46.887Z,101313.46
2023-04-09T07:41:48.946Z,101314.14
2023-04-09T07:46:50.862Z,101314.78
2023-04-09T07:51:53.011Z,101312.44
2023-04-09T07:56:56.220Z,101308.95
2023-04-09T08:01:58.731Z,101314.34
2023-04-09T08:07:00.994Z,101316.57
2023-04-09T08:12:03.696Z,101314.98
2023-04-09T08:17:05.674Z,101309.88
2023-04-09T08:22:07.694Z,101313.34
2023-04-09T08:27:10.139Z,101319.69
2023-04-09T08:32:12.332Z,101320.04
2023-04-09T08:37:14.199Z,101317.08
2023-04-09T08:42:17.303Z,101314.64
2023-04-09T08:47:20.744Z,101311.50
2023-04-09T08:52:34.063Z,101308.86
2023-04-09T08:57:39.839Z,101305.66
2023-04-09T09:03:07.183Z,101303.46
2023-04-09T09:08:11.854Z,101307.54
2023-04-09T09:13:27.242Z,101307.29
2023-04-09T09:18:39.271Z,101307.66
2023-04-09T09:23:44.828Z,101313.23
2023-04-09T09:28:48.962Z,101316.34
2023-04-09T09:33:51.541Z,101315.55
2023-04-09T09:38:56.938Z,101313.90
2023-04-09T09:44:00.056Z,101310.88
2023-04-09T09:49:03.017Z,101310.64
2023-04-09T09:54:07.875Z,101307.65
2023-04-09T09:59:23.489Z,101308.95
2023-04-09T10:04:30.817Z,101304.08
2023-04-09T10:09:37.765Z,101297.89
2023-04-09T10:14:41.276Z,101299.20
2023-04-09T10:19:54.311Z,101297.13
2023-04-09T10:24:57.621Z,101293.20
2023-04-09T10:30:01.452Z,101294.21
2023-04-09T10:35:04.981Z,101291.69
2023-04-09T10:40:10.637Z,101295.85
2023-04-09T10:45:15.156Z,101297.83
2023-04-09T10:50:21.858Z,101293.10
2023-04-09T10:55:36.131Z,101293.08
2023-04-09T11:00:42.910Z,101288.05
2023-04-09T11:06:10.452Z,101289.27
2023-04-09T11:11:12.832Z,101291.23
2023-04-09T11:16:23.265Z,101286.58
2023-04-09T11:21:31.384Z,101287.95
2023-04-09T11:26:37.110Z,101283.75
2023-04-09T11:31:44.099Z,101282.47
2023-04-09T11:36:49.516Z,101284.62
2023-04-09T11:41:51.900Z,101286.33
2023-04-09T11:46:54.336Z,101282.65
2023-04-09T11:51:58.110Z,101285.06
2023-04-09T11:57:05.036Z,101278.55
2023-04-09T12:02:07.902Z,101273.71
2023-04-09T12:07:11.014Z,101267.14
2023-04-09T12:12:18.938Z,101262.30
2023-04-09T12:17:21.184Z,101262.90
2023-04-09T12:22:22.996Z,101264.22
2023-04-09T12:27:25.073Z,101267.17
2023-04-09T12:32:27.823Z,101263.51
2023-04-09T12:37:30.162Z,101256.77
2023-04-09T12:42:32.953Z,101256.37
2023-04-09T12:47:35.137Z,101247.23
2023-04-09T12:52:37.742Z,101244.18
2023-04-09T12:57:42.065Z,101240.35
2023-04-09T13:02:44.044Z,101236.11
2023-04-09T13:07:46.537Z,101227.75
2023-04-09T13:12:48.212Z,101224.98
2023-04-09T13:17:50.223Z,101219.30
2023-04-09T13:22:52.288Z,101218.33
2023-04-09T13:27:54.153Z,101216.73
2023-04-09T13:32:56.229Z,101212.88
2023-04-09T13:37:58.104Z,101210.67
2023-04-09T13:43:00.806Z,101206.54
2023-04-09T13:48:02.613Z,101202.91
2023-04-09T13:53:05.066Z,101201.23
2023-04-09T13:58:06.838Z,101198.02
2023-04-09T14:03:09.229Z,101193.08
2023-04-09T14:08:11.720Z,101191.57
2023-04-09T14:13:13.800Z,101193.09
2023-04-09T14:18:15.888Z,101187.84
2023-04-09T14:23:17.768Z,101185.78
2023-04-09T14:28:19.634Z,101184.86
2023-04-09T14:33:21.305Z,101182.91
2023-04-09T14:38:26.168Z,101174.92
2023-04-09T14:43:27.944Z,101170.60
2023-04-09T14:48:29.702Z,101167.64
2023-04-09T14:53:31.788Z,101160.77
2023-04-09T14:58:33.770Z,101161.16
2023-04-09T15:03:36.344Z,101160.36
2023-04-09T15:08:39.159Z,101157.85
2023-04-09T15:13:41.141Z,101156.34
2023-04-09T15:18:43.014Z,101159.58
2023-04-09T15:23:46.154Z,101163.05
2023-04-09T15:28:48.615Z,101169.92
2023-04-09T15:33:50.911Z,101171.34
2023-04-09T15:38:53.919Z,101166.83
2023-04-09T15:43:56.084Z,101169.17
2023-04-09T15:48:58.164Z,101175.27
2023-04-09T15:54:00.346Z,101175.95
2023-04-09T15:59:04.781Z,101180.73
2023-04-09T16:04:08.786Z,101185.41
2023-04-09T16:09:10.462Z,101183.88
2023-04-09T16:14:12.264Z,101193.52
2023-04-09T16:19:14.164Z,101199.79
2023-04-09T16:24:16.048Z,101203.25
2023-04-09T16:29:17.786Z,101205.51
2023-04-09T16:34:20.305Z,101205.91
2023-04-09T16:39:22.670Z,101207.31
2023-04-09T16:44:25.461Z,101219.52
2023-04-09T16:49:27.750Z,101225.36
2023-04-09T16:54:30.652Z,101226.16
2023-04-09T16:59:32.527Z,101230.02
2023-04-09T17:04:37.068Z,101237.73
2023-04-09T17:09:39.456Z,101237.27
2023-04-09T17:14:42.465Z,101240.83
2023-04-09T17:19:44.543Z,101246.13
2023-04-09T17:24:47.474Z,101253.14
2023-04-09T17:29:49.524Z,101256.63
2023-04-09T17:34:51.907Z,101261.93
2023-04-09T17:39:53.990Z,101268.05
2023-04-09T17:44:56.384Z,101270.48
2023-04-09T17:49:59.698Z,101280.23
2023-04-09T17:55:01.771Z,101285.89
2023-04-09T18:00:05.994Z,101287.73
2023-04-09T18:05:08.944Z,101298.43
2023-04-09T18:10:11.818Z,101302.26
2023-04-09T18:15:14.807Z,101306.59
2023-04-09T18:20:17.325Z,101312.96
2023-04-09T18:25:21.961Z,101314.12
2023-04-09T18:30:25.862Z,101317.74
2023-04-09T18:35:27.961Z,101324.48
2023-04-09T18:40:30.141Z,101331.56
2023-04-09T18:45:32.111Z,101336.76
2023-04-09T18:50:34.712Z,101342.30
2023-04-09T18:55:37.744Z,101344.77
2023-04-09T19:00:39.692Z,101347.38
2023-04-09T19:05:41.987Z,101347.30
2023-04-09T19:10:47.236Z,101347.28
2023-04-09T19:15:50.469Z,101341.51
2023-04-09T19:20:52.420Z,101337.44
2023-04-09T19:25:55.884Z,101335.08
2023-04-09T19:30:58.591Z,101340.40
2023-04-09T19:36:01.650Z,101341.02
2023-04-09T19:41:04.063Z,101339.91
2023-04-09T19:46:08.210Z,101344.48
2023-04-09T19:51:17.840Z,101350.72
2023-04-09T19:56:21.235Z,101351.16
2023-04-09T20:01:23.691Z,101351.35
2023-04-09T20:06:27.032Z,101351.36
2023-04-09T20:11:30.709Z,101355.58
2023-04-09T20:16:32.669Z,101356.23
2023-04-09T20:21:34.813Z,101357.46
2023-04-09T20:26:37.109Z,101352.16
2023-04-09T20:31:40.068Z,101350.90
2023-04-09T20:36:43.412Z,101351.27
2023-04-09T20:41:45.074Z,101348.30
2023-04-09T20:46:47.058Z,101350.98
2023-04-09T20:51:49.589Z,101355.91
2023-04-09T20:56:52.761Z,101353.41
2023-04-09T21:01:55.872Z,101357.63
2023-04-09T21:06:58.051Z,101357.23
2023-04-09T21:12:02.400Z,101351.48
2023-04-09T21:17:04.410Z,101352.66
2023-04-09T21:22:06.753Z,101351.08
2023-04-09T21:27:08.944Z,101352.44
2023-04-09T21:32:11.659Z,101346.89
2023-04-09T21:37:13.518Z,101349.67
2023-04-09T21:42:16.631Z,101353.17
2023-04-09T21:47:19.063Z,101351.86
2023-04-09T21:52:22.027Z,101351.74
2023-04-09T21:57:24.305Z,101349.57
2023-04-09T22:02:28.942Z,101349.19
2023-04-09T22:07:31.170Z,101347.55
2023-04-09T22:12:33.225Z,101342.53
2023-04-09T22:17:35.308Z,101338.54
2023-04-09T22:22:37.890Z,101334.17
2023-04-09T22:27:39.971Z,101330.61
2023-04-09T22:32:41.881Z,101329.52
2023-04-09T22:37:46.077Z,101328.89
2023-04-09T22:42:48.173Z,101324.56
2023-04-09T22:47:50.259Z,101322.83
2023-04-09T22:52:54.062Z,101324.58
2023-04-09T22:57:57.811Z,101322.70
2023-04-09T23:03:00.698Z,101327.40
2023-04-09T23:08:03.074Z,101324.57
2023-04-09T23:13:05.148Z,101329.44
2023-04-09T23:18:06.879Z,101330.44
2023-04-09T23:23:08.698Z,101333.42
2023-04-09T23:28:10.491Z,101333.66
2023-04-09T23:33:15.014Z,101334.66
2023-04-09T23:38:16.794Z,101328.96
2023-04-09T23:43:19.321Z,101332.98
2023-04-09T23:48:21.260Z,101331.34
2023-04-09T23:53:23.034Z,101334.08
2023-04-09T23:58:25.116Z,101334.88
